Tiempo atmosférico en la estación meteorológica de Almansa, Albacete (715 m.)



Fecha
DESCASC
Temp. máxima en grados centígrados (hora)
DESCASC
Temp. mínima en grados centígrados (hora)
DESCASC
Temp. media en grados centígrados
DESCASC
Racha de viento máxima en m/sg (hora)
DESCASC
Velocidad máxima media en intervalos de 10 minutos(hora)
DESCASC
Precipitaciones diarias en mm
DESCASC
Precipitaciones de 00:00 a 06:00 en mm
DESCASC
Precipitaciones de 06:00 a 12:00 en mm
DESCASC
Precipitaciones de 12:00 a 18:00 en mm
DESCASC
Precipitaciones de 18:00 a 24:00 en mm
DESCASC
29-10-2020 23.8 (15:30) 5.7 (07:40) 14.7 5.28 (13:40) 2.22 (14:10) 0 0 0 0 0
28-10-2020 22.6 (16:00) 8.4 (05:20) 15.5 6.94 (02:00) 3.33 (02:00) 0 0 0 0 0
27-10-2020 15.9 (15:20) 4.2 (00:00) 10 11.39 (15:20) 5.28 (15:20) 0 0 0 0 0
26-10-2020 14 (15:00) 6.7 (00:00) 10.3 13.61 (13:10) 6.67 (13:00) 1 1 0 0 0
25-10-2020 20.3 (15:00) 9 (00:00) 14.6 11.11 (23:30) 5 (10:20) 0 0 0 0 0
24-10-2020 18.5 (15:50) 5.9 (00:00) 12.2 8.89 (15:00) 4.17 (15:00) 0 0 0 0 0
23-10-2020 18.9 (16:00) 9.1 (00:00) 14 10.83 (14:10) 5 (17:10) 0.2 0.2 0 0 0
22-10-2020 17.7 (13:00) 12.1 (00:00) 14.9 3.61 (18:50) 1.39 (13:10) 2.8 0 0 2.6 0.2
21-10-2020 25.3 (14:40) 9.9 (00:00) 17.6 6.67 (14:00) 2.78 (12:40) 0 0 0 0 0
20-10-2020 19.5 (16:10) 5.9 (00:00) 12.7 6.11 (16:40) 2.22 (16:40) 0 0 0 0 0
19-10-2020 22.1 (15:50) 2.4 (00:00) 12.3 6.94 (16:20) 2.78 (12:50) 0 0 0 0 0
18-10-2020 23 (16:00) 0.3 (00:00) 11.7 6.11 (14:40) 2.5 (15:00) 0 0 0 0 0
17-10-2020 20.6 (16:30) 0 (00:00) 10.3 8.33 (13:10) 3.89 (16:40) 0 0 0 0 0
16-10-2020 18 (15:20) 1.9 (00:00) 9.9 7.78 (15:20) 3.33 (15:50) 0 0 0 0 0
15-10-2020 18.5 (16:00) 5.5 (00:00) 12 10 (15:10) 4.44 (16:30) 0 0 0 0 0
14-10-2020 20.5 (16:20) 10.7 (00:00) 15.6 10.28 (15:30) 4.72 (17:30) 0 0 0 0 0
13-10-2020 23.3 (15:30) 7.4 (00:00) 15.3 10 (18:10) 4.72 (18:00) 0 0 0 0 0
12-10-2020 19.3 (17:00) 4.9 (00:00) 12.1 8.89 (02:20) 3.06 (01:50) 0 0 0 0 0
11-10-2020 21.2 (15:50) 8.6 (00:00) 14.9 8.06 (16:10) 3.89 (16:10) 0.4 0.2 0.2 0 0
10-10-2020 23.3 (17:00) 9.9 (00:00) 16.6 5 (17:50) 2.5 (17:50) 1.4 0 0 0 1.4
09-10-2020 29 (15:50) 10.4 (00:00) 19.7 6.11 (16:40) 2.5 (15:50) 0 0 0 0 0
08-10-2020 25.9 (16:00) 9 (00:00) 17.4 6.39 (16:40) 2.78 (16:40) 0 0 0 0 0
07-10-2020 28.1 (16:40) 10 (00:00) 19.1 5.28 (14:00) 2.22 (09:40) 0 0 0 0 0
06-10-2020 25.2 (16:50) 6.4 (00:00) 15.8 7.5 (13:30) 3.61 (12:10) 0 0 0 0 0
05-10-2020 19.4 (15:30) 8.9 (00:00) 14.1 8.61 (14:00) 3.89 (15:40) 0 0 0 0 0
04-10-2020 19.8 (14:30) 6.6 (00:00) 13.2 13.61 (18:10) 6.11 (18:10) 0 0 0 0 0
03-10-2020 16.6 (16:40) 5.8 (00:00) 11.2 12.78 (12:10) 6.67 (12:10) 0 0 0 0 0
02-10-2020 21.2 (14:00) 8.4 (00:00) 14.8 17.78 (14:40) 7.78 (15:00) 9 0 0 9 0
01-10-2020 27.6 (16:00) 12.3 (00:00) 20 10.28 (12:20) 5.56 (17:00) 0 0 0 0 0

Gráficas

Temp. máximas Temp. mínimas Temp. medias Precipitaciones Rachas de viento máximas Velocidades máximas media en intervalos de 10 minutos

Datos horarios

Fecha y hora oficial Temperatura (ºC) Velocidad del viento (km/h) Dirección del viento Racha (km/h) Dirección de racha Precipitación (mm) Presión (hPa) Tendencia (hPa) Humedad (%)
2020-10-30 23:00:00 7.3 0 Calma 5 Sur 0 -- -- 78
2020-10-30 22:00:00 8.5 2 Sudoeste 5 Sudoeste 0 -- -- 74
2020-10-30 21:00:00 10.5 0 Calma 3 Sudoeste 0 -- -- 67
2020-10-30 20:00:00 13.3 0 Calma 10 Sudoeste 0 -- -- 60
2020-10-30 19:00:00 15.5 5 Sudoeste 10 Sur 0 -- -- 54
2020-10-30 18:00:00 19.8 3 Sur 13 Sur 0 -- -- 40
2020-10-30 17:00:00 23 6 Sur 14 Sudoeste 0 -- -- 33
2020-10-30 16:00:00 25 3 Sudoeste 14 Sudoeste 0 -- -- 30
2020-10-30 15:00:00 24.8 5 Oeste 14 Sur 0 -- -- 33
2020-10-30 14:00:00 24.2 4 Este 19 Sudoeste 0 -- -- 36
2020-10-30 13:00:00 23.1 4 Sudeste 16 Sur 0 -- -- 39
2020-10-30 12:00:00 21.1 3 Nordeste 11 Este 0 -- -- 48
2020-10-30 11:00:00 17.2 3 Norte 6 Nordeste 0 -- -- 64
2020-10-30 10:00:00 11.9 0 Calma 3 Norte 0 -- -- 96
2020-10-30 09:00:00 6.8 0 Calma 3 Sudoeste 0 -- -- 97
2020-10-30 08:00:00 3.8 0 Calma 4 Sudoeste 0 -- -- 95
2020-10-30 07:00:00 3.7 0 Calma 5 Sudoeste 0 -- -- 94
2020-10-30 06:00:00 4.2 0 Calma 4 Sudoeste 0 -- -- 93
2020-10-30 05:00:00 4.7 0 Calma 3 Sudoeste 0 -- -- 93
2020-10-30 04:00:00 5.3 0 Calma 6 Sur 0 -- -- 93
2020-10-30 03:00:00 5.6 0 Calma 2 Sudoeste 0 -- -- 92
2020-10-30 02:00:00 6.1 0 Calma 4 Sudoeste 0 -- -- 92
2020-10-30 01:00:00 6.7 0 Calma 3 Sudoeste 0 -- -- 89
2020-10-30 00:00:00 8 0 Calma 9 Sudoeste 0 -- -- 87
2020-10-29 23:00:00 8.6 0 Calma 4 Sudoeste 0 -- -- 87
2020-10-29 22:00:00 9.6 0 Calma 4 Oeste 0 -- -- 84
2020-10-29 21:00:00 11.3 0 Calma 8 Sudoeste 0 -- -- 81
2020-10-29 20:00:00 12.7 0 Calma 5 Sudoeste 0 -- -- 76
2020-10-29 19:00:00 15.5 3 Este 11 Nordeste 0 -- -- 68
2020-10-29 18:00:00 18.9 0 Calma 10 Noroeste 0 -- -- 48
2020-10-29 17:00:00 22 6 Noroeste 15 Oeste 0 -- -- 40
2020-10-29 16:00:00 23.6 3 Oeste 17 Oeste 0 -- -- 40
2020-10-29 15:00:00 23.6 6 Sudoeste 19 Sur 0 -- -- 40
2020-10-29 14:00:00 23.3 4 Sudoeste 19 Sudoeste 0 -- -- 42
2020-10-29 13:00:00 21.5 4 Este 12 Nordeste 0 -- -- 48
2020-10-29 12:00:00 19.2 5 Norte 12 Norte 0 -- -- 55
2020-10-29 11:00:00 16.5 5 Norte 12 Norte 0 -- -- 66
2020-10-29 10:00:00 13.1 0 Calma 5 Noroeste 0 -- -- 80
2020-10-29 09:00:00 8.1 0 Calma 4 Sudoeste 0 -- -- 96
2020-10-29 08:00:00 5.8 2 Sudoeste 8 Sudoeste 0 -- -- 94
2020-10-29 07:00:00 6.4 0 Calma 9 Sur 0 -- -- 93
2020-10-29 06:00:00 6.3 3 Sudoeste 6 Sur 0 -- -- 93
2020-10-29 05:00:00 6.4 2 Sudoeste 6 Sudoeste 0 -- -- 92
2020-10-29 04:00:00 6.9 3 Sudoeste 4 Sudoeste 0 -- -- 90
2020-10-29 03:00:00 8.4 0 Calma 6 Sur 0 -- -- 86
2020-10-29 02:00:00 9.8 0 Calma 9 Sudoeste 0 -- -- 83
2020-10-29 01:00:00 10.2 2 Sudoeste 8 Sudoeste 0 -- -- 82
2020-10-29 00:00:00 10.8 2 Oeste 9 Oeste 0 -- -- 80
2020-10-28 23:00:00 11.5 4 Oeste 14 Sudoeste 0 -- -- 79
2020-10-28 22:00:00 11.6 3 Sudoeste 9 Sudoeste 0 -- -- 78
2020-10-28 21:00:00 13.7 0 Calma 19 Noroeste 0 -- -- 71
2020-10-28 20:00:00 14.6 7 Oeste 12 Oeste 0 -- -- 68
2020-10-28 19:00:00 16.1 5 Oeste 16 Oeste 0 -- -- 63
2020-10-28 18:00:00 18.6 6 Oeste 18 Oeste 0 -- -- 54
2020-10-28 17:00:00 21.1 6 Noroeste 19 Oeste 0 -- -- 47
2020-10-28 16:00:00 22.6 3 Noroeste 10 Noroeste 0 -- -- 42
2020-10-28 15:00:00 22 5 Norte 13 Noroeste 0 -- -- 43
2020-10-28 14:00:00 21 5 Sur 18 Oeste 0 -- -- 45
2020-10-28 13:00:00 19.6 8 Oeste 18 Oeste 0 -- -- 48
2020-10-28 12:00:00 18.1 6 Oeste 17 Oeste 0 -- -- 52
2020-10-28 11:00:00 15.7 6 Oeste 20 Noroeste 0 -- -- 58
2020-10-28 10:00:00 14.3 8 Oeste 23 Noroeste 0 -- -- 63
2020-10-28 09:00:00 11 10 Oeste 19 Oeste 0 -- -- 76
2020-10-28 08:00:00 9.4 6 Noroeste 16 Oeste 0 -- -- 81
2020-10-28 07:00:00 8.8 4 Oeste 17 Noroeste 0 -- -- 82
2020-10-28 06:00:00 8.5 3 Noroeste 15 Noroeste 0 -- -- 83
2020-10-28 05:00:00 8.8 6 Noroeste 20 Oeste 0 -- -- 79
2020-10-28 04:00:00 8.7 6 Noroeste 19 Sudoeste 0 -- -- 78
2020-10-28 03:00:00 8.9 6 Oeste 21 Oeste 0 -- -- 76
2020-10-28 02:00:00 9.5 12 Oeste 25 Oeste 0 -- -- 72
2020-10-28 01:00:00 9.4 11 Oeste 20 Oeste 0 -- -- 69
2020-10-28 00:00:00 9.7 4 Sudoeste 21 Oeste 0 -- -- 65
2020-10-27 23:00:00 8.7 3 Oeste 11 Noroeste 0 -- -- 62
2020-10-27 22:00:00 9.9 3 Noroeste 13 Oeste 0 -- -- 56
2020-10-27 21:00:00 10.3 4 Oeste 17 Oeste 0 -- -- 53
2020-10-27 20:00:00 11 5 Noroeste 18 Noroeste 0 -- -- 53
2020-10-27 19:00:00 11.9 6 Noroeste 22 Noroeste 0 -- -- 48
2020-10-27 18:00:00 13.2 12 Oeste 39 Noroeste 0 -- -- 48
2020-10-27 17:00:00 14.4 14 Oeste 39 Oeste 0 -- -- 44
2020-10-27 16:00:00 15.7 17 Oeste 41 Oeste 0 -- -- 45
2020-10-27 15:00:00 15.7 18 Oeste 40 Oeste 0 -- -- 42
2020-10-27 14:00:00 15.6 14 Oeste 36 Oeste 0 -- -- 45
2020-10-27 13:00:00 14.6 14 Oeste 30 Oeste 0 -- -- 47
2020-10-27 12:00:00 13.7 12 Noroeste 32 Oeste 0 -- -- 47
2020-10-27 11:00:00 12.1 11 Noroeste 28 Oeste 0 -- -- 56
2020-10-27 10:00:00 9.6 8 Oeste 31 Oeste 0 -- -- 66
2020-10-27 09:00:00 6.3 12 Oeste 22 Oeste 0 -- -- 77
2020-10-27 08:00:00 4.2 6 Oeste 19 Noroeste 0 -- -- 83
2020-10-27 07:00:00 4.7 6 Oeste 22 Noroeste 0 -- -- 80
2020-10-27 06:00:00 5.2 13 Oeste 24 Oeste 0 -- -- 79
2020-10-27 05:00:00 4.9 5 Oeste 19 Oeste 0 -- -- 79
2020-10-27 04:00:00 5 4 Oeste 12 Oeste 0 -- -- 78
2020-10-27 03:00:00 5.4 5 Oeste 12 Noroeste 0 -- -- 77
2020-10-27 02:00:00 6.9 4 Noroeste 20 Noroeste 0 -- -- 66
2020-10-27 01:00:00 7.5 10 Oeste 26 Oeste 0 -- -- 65
2020-10-27 00:00:00 7.7 10 Oeste 24 Oeste 0 -- -- 63
2020-10-26 23:00:00 6.8 4 Noroeste 12 Noroeste 0 -- -- 65
2020-10-26 22:00:00 8.4 3 Este 20 Oeste 0 -- -- 59
2020-10-26 21:00:00 9.2 8 Oeste 28 Oeste 0 -- -- 56
2020-10-26 20:00:00 9.4 10 Noroeste 40 Noroeste 0 -- -- 56
2020-10-26 19:00:00 9.7 17 Oeste 40 Oeste 0 -- -- 57
2020-10-26 18:00:00 10.7 14 Oeste 37 Noroeste 0 -- -- 53
2020-10-26 17:00:00 11.9 16 Noroeste 44 Oeste 0 -- -- 48
2020-10-26 16:00:00 13 17 Noroeste 32 Norte 0 -- -- 47
2020-10-26 15:00:00 14 14 Noroeste 40 Oeste 0 -- -- 45
2020-10-26 14:00:00 13.7 13 Noroeste 49 Oeste 0 -- -- 48
2020-10-26 13:00:00 12.9 24 Oeste 49 Oeste 0 -- -- 50
2020-10-26 12:00:00 12.1 14 Noroeste 37 Noroeste 0 -- -- 56
2020-10-26 11:00:00 11.1 18 Noroeste 41 Oeste 0 -- -- 65
2020-10-26 10:00:00 9.6 16 Noroeste 37 Oeste 0 -- -- 69
2020-10-26 09:00:00 7.9 12 Oeste 33 Oeste 0 -- -- 81
2020-10-26 08:00:00 7.4 15 Oeste 32 Oeste 0 -- -- 81
2020-10-26 07:00:00 8 12 Oeste 28 Noroeste 0 -- -- 78
2020-10-26 06:00:00 8.6 12 Oeste 32 Noroeste 0.2 -- -- 85
2020-10-26 05:00:00 10 9 Oeste 35 Oeste 0.2 -- -- 86
2020-10-26 04:00:00 10.1 13 Oeste 33 Oeste 0.2 -- -- 87
2020-10-26 03:00:00 10.4 13 Oeste 38 Oeste 0 -- -- 85
2020-10-26 02:00:00 11.8 15 Oeste 30 Oeste 0.4 -- -- 86
2020-10-26 01:00:00 13.6 11 Oeste 28 Oeste 0 -- -- 67
2020-10-26 00:00:00 13.4 11 Oeste 40 Oeste 0 -- -- 67
2020-10-25 23:00:00 13 10 Oeste 29 Oeste 0 -- -- 68
2020-10-25 22:00:00 13.3 9 Sudoeste 27 Sudoeste 0 -- -- 64
2020-10-25 21:00:00 12.6 6 Oeste 21 Oeste 0 -- -- 61
2020-10-25 20:00:00 13 10 Oeste 26 Noroeste 0 -- -- 62
2020-10-25 19:00:00 14.3 12 Oeste 21 Oeste 0 -- -- 54
2020-10-25 18:00:00 16.3 12 Oeste 27 Noroeste 0 -- -- 46
2020-10-25 17:00:00 18.6 11 Oeste 28 Oeste 0 -- -- 44
2020-10-25 16:00:00 20.3 11 Oeste 29 Oeste 0 -- -- 41
2020-10-25 15:00:00 20.3 12 Oeste 35 Oeste 0 -- -- 42
2020-10-25 14:00:00 19.4 15 Oeste 33 Oeste 0 -- -- 45
2020-10-25 13:00:00 18.7 13 Oeste 36 Oeste 0 -- -- 48
2020-10-25 12:00:00 17.3 15 Oeste 37 Oeste 0 -- -- 51
2020-10-25 11:00:00 15.8 12 Oeste 37 Oeste 0 -- -- 60
2020-10-25 10:00:00 13.9 14 Oeste 34 Oeste 0 -- -- 68
2020-10-25 09:00:00 11.6 12 Oeste 26 Oeste 0 -- -- 79
2020-10-25 08:00:00 9.8 12 Oeste 26 Oeste 0 -- -- 86
2020-10-25 07:00:00 9.2 4 Oeste 15 Sudoeste 0 -- -- 85
2020-10-25 06:00:00 9.5 6 Oeste 19 Oeste 0 -- -- 85
2020-10-25 05:00:00 9.7 8 Oeste 21 Oeste 0 -- -- 84
2020-10-25 04:00:00 9.8 11 Oeste 22 Oeste 0 -- -- 81
2020-10-25 03:00:00 10 8 Oeste 20 Oeste 0 -- -- 79
2020-10-25 02:00:00 9.9 9 Oeste 23 Oeste 0 -- -- 78
2020-10-25 01:00:00 11.1 10 Oeste 26 Oeste 0 -- -- 72
2020-10-25 00:00:00 10.7 8 Oeste 16 Oeste 0 -- -- 72
2020-10-24 23:00:00 9.9 6 Oeste 12 Sudoeste 0 -- -- 74
2020-10-24 22:00:00 11 5 Oeste 14 Oeste 0 -- -- 71
2020-10-24 21:00:00 11.6 5 Oeste 10 Oeste 0 -- -- 68
2020-10-24 20:00:00 13.1 4 Oeste 13 Noroeste 0 -- -- 63
2020-10-24 19:00:00 15.7 6 Noroeste 26 Oeste 0 -- -- 54
2020-10-24 18:00:00 17.2 11 Oeste 31 Noroeste 0 -- -- 51
2020-10-24 17:00:00 18.4 13 Oeste 29 Noroeste 0 -- -- 48
2020-10-24 16:00:00 18.5 12 Noroeste 28 Oeste 0 -- -- 48
2020-10-24 15:00:00 17.3 15 Oeste 32 Oeste 0 -- -- 53
2020-10-24 14:00:00 16.9 10 Noroeste 27 Oeste 0 -- -- 54
2020-10-24 13:00:00 15.9 12 Oeste 25 Oeste 0 -- -- 59
2020-10-24 12:00:00 12.9 9 Oeste 20 Oeste 0 -- -- 74
2020-10-24 11:00:00 10.5 9 Oeste 21 Oeste 0 -- -- 82
2020-10-24 10:00:00 7.8 6 Sudoeste 18 Sudoeste 0 -- -- 91
2020-10-24 09:00:00 6.1 6 Sudoeste 13 Sudoeste 0 -- -- 92
2020-10-24 08:00:00 6.6 4 Sudoeste 16 Noroeste 0 -- -- 88
2020-10-24 07:00:00 7.2 9 Oeste 21 Noroeste 0 -- -- 88
2020-10-24 06:00:00 7.2 7 Oeste 13 Oeste 0 -- -- 87
2020-10-24 05:00:00 7.4 5 Oeste 17 Oeste 0 -- -- 84
2020-10-24 04:00:00 7.9 8 Oeste 18 Oeste 0 -- -- 85
2020-10-24 03:00:00 8.3 6 Oeste 17 Oeste 0 -- -- 83
2020-10-24 02:00:00 8.6 5 Oeste 17 Oeste 0 -- -- 79
2020-10-24 01:00:00 9.5 8 Oeste 19 Oeste 0 -- -- 76
2020-10-24 00:00:00 9.4 7 Oeste 15 Oeste 0 -- -- 77
2020-10-23 23:00:00 9.9 4 Oeste 12 Oeste 0 -- -- 73
2020-10-23 22:00:00 11.1 6 Oeste 16 Oeste 0 -- -- 69
2020-10-23 21:00:00 11.8 5 Oeste 14 Oeste 0 -- -- 68
2020-10-23 20:00:00 13 6 Oeste 22 Oeste 0 -- -- 62
2020-10-23 19:00:00 15 12 Oeste 26 Oeste 0 -- -- 55
2020-10-23 18:00:00 17 14 Noroeste 37 Oeste 0 -- -- 48
2020-10-23 17:00:00 18.3 14 Oeste 36 Noroeste 0 -- -- 44
2020-10-23 16:00:00 18.9 13 Oeste 33 Oeste 0 -- -- 45
2020-10-23 15:00:00 17.9 16 Oeste 39 Oeste 0 -- -- 50
2020-10-23 14:00:00 17.8 17 Oeste 35 Oeste 0 -- -- 51
2020-10-23 13:00:00 17 15 Oeste 33 Oeste 0 -- -- 57
2020-10-23 12:00:00 15.5 12 Oeste 30 Oeste 0 -- -- 64
2020-10-23 11:00:00 13.8 12 Oeste 24 Oeste 0 -- -- 75
2020-10-23 10:00:00 12.1 10 Oeste 24 Oeste 0 -- -- 84
2020-10-23 09:00:00 10.8 10 Oeste 27 Oeste 0 -- -- 87
2020-10-23 08:00:00 10.7 10 Oeste 21 Oeste 0 -- -- 88
2020-10-23 07:00:00 11 13 Oeste 24 Oeste 0 -- -- 89
2020-10-23 06:00:00 11.1 8 Oeste 19 Oeste 0.2 -- -- 92
2020-10-23 05:00:00 11.2 7 Oeste 14 Oeste 0 -- -- 95
2020-10-23 04:00:00 11.2 0 Calma 9 Oeste 0 -- -- 94
2020-10-23 03:00:00 11.9 0 Calma 4 Noroeste 0 -- -- 94
2020-10-23 02:00:00 12.3 0 Calma 4 Sudoeste 0 -- -- 94
2020-10-23 01:00:00 12.5 3 Sudoeste 8 Sudoeste 0 -- -- 94
2020-10-23 00:00:00 12.1 0 Calma 5 Oeste 0 -- -- 93
2020-10-22 23:00:00 12.7 0 Calma 9 Sudoeste 0 -- -- 93
2020-10-22 22:00:00 12.8 0 Calma 2 Norte 0 -- -- 91
2020-10-22 21:00:00 13.7 0 Calma 8 Sudeste 0 -- -- 92
2020-10-22 20:00:00 13.9 3 Sur 7 Sur 0 -- -- 91
2020-10-22 19:00:00 14.4 2 Oeste 13 Sudoeste 0.2 -- -- 89
2020-10-22 18:00:00 15 0 Calma 3 Sudoeste 0 -- -- 90
2020-10-22 17:00:00 15.2 0 Calma 7 Sudeste 0 -- -- 89
2020-10-22 16:00:00 15.5 2 Sudeste 7 Sur 1 -- -- 89
2020-10-22 15:00:00 15.7 0 Calma 10 Sur 1.2 -- -- 86
2020-10-22 14:00:00 16.9 2 Sur 12 Sur 0.4 -- -- 77
2020-10-22 13:00:00 17.7 3 Sur 12 Sur 0 -- -- 69
2020-10-22 12:00:00 16.4 0 Calma 3 Oeste 0 -- -- 73
2020-10-22 11:00:00 15.2 0 Calma 3 Noroeste 0 -- -- 75
2020-10-22 10:00:00 14.6 0 Calma 5 Sudoeste 0 -- -- 74
2020-10-22 09:00:00 13.1 2 Sudoeste 4 Sudoeste 0 -- -- 78
2020-10-22 08:00:00 13.1 0 Calma 2 Sudeste 0 -- -- 78
2020-10-22 07:00:00 13.5 0 Calma 4 Oeste 0 -- -- 78
2020-10-22 06:00:00 13.8 2 Sur 6 Sur 0 -- -- 77
2020-10-22 05:00:00 13.7 2 Sudoeste 6 Sur 0 -- -- 79
2020-10-22 04:00:00 14 0 Calma 4 Sur 0 -- -- 72
2020-10-22 03:00:00 14.2 0 Calma 6 Sudoeste 0 -- -- 70
2020-10-22 02:00:00 14.3 0 Calma 8 Sur 0 -- -- 69
2020-10-22 01:00:00 14.7 2 Sudoeste 5 Sur 0 -- -- 68
2020-10-22 00:00:00 15.4 2 Noroeste 6 Sudoeste 0 -- -- 66
2020-10-21 23:00:00 15.6 3 Oeste 5 Oeste 0 -- -- 65
2020-10-21 22:00:00 16 0 Calma 5 Este 0 -- -- 63
2020-10-21 21:00:00 17.8 3 Sur 12 Sur 0 -- -- 58
2020-10-21 20:00:00 19.2 6 Sur 15 Sudeste 0 -- -- 53
2020-10-21 19:00:00 21 8 Sudeste 19 Sudeste 0 -- -- 47
2020-10-21 18:00:00 22.5 8 Sudeste 17 Este 0 -- -- 41
2020-10-21 17:00:00 23.5 4 Sur 19 Oeste 0 -- -- 36
2020-10-21 16:00:00 25.2 9 Oeste 20 Oeste 0 -- -- 32
2020-10-21 15:00:00 24.9 9 Oeste 22 Oeste 0 -- -- 33
2020-10-21 14:00:00 24.6 9 Oeste 24 Sudoeste 0 -- -- 35
2020-10-21 13:00:00 23 10 Sudoeste 24 Sudoeste 0 -- -- 36
2020-10-21 12:00:00 21.7 9 Sudoeste 18 Sudoeste 0 -- -- 38
2020-10-21 11:00:00 17.9 4 Nordeste 9 Norte 0 -- -- 64
2020-10-21 10:00:00 13.2 2 Norte 9 Noroeste 0 -- -- 77
2020-10-21 09:00:00 12.1 3 Sudoeste 8 Sur 0 -- -- 72
2020-10-21 08:00:00 12.8 3 Sudoeste 11 Sudoeste 0 -- -- 69
2020-10-21 07:00:00 11.9 0 Calma 4 Oeste 0 -- -- 74
2020-10-21 06:00:00 12 0 Calma 5 Noroeste 0 -- -- 76
2020-10-21 05:00:00 11.9 0 Calma 5 Sudoeste 0 -- -- 76
2020-10-21 04:00:00 12.1 0 Calma 7 Sudoeste 0 -- -- 79
2020-10-21 03:00:00 11.3 0 Calma 6 Sudoeste 0 -- -- 89
2020-10-21 02:00:00 11 0 Calma 7 Este 0 -- -- 91
2020-10-21 01:00:00 11.4 3 Sudeste 13 Sudeste 0 -- -- 94
2020-10-21 00:00:00 9.9 3 Sudeste 8 Este 0 -- -- 92
2020-10-20 23:00:00 11.1 2 Sudeste 6 Sudeste 0 -- -- 88
2020-10-20 22:00:00 13 3 Este 10 Sudeste 0 -- -- 90
2020-10-20 21:00:00 13.8 2 Nordeste 14 Este 0 -- -- 89
2020-10-20 20:00:00 14.1 5 Este 15 Sudeste 0 -- -- 87
2020-10-20 19:00:00 15.3 4 Este 18 Sudeste 0 -- -- 81
2020-10-20 18:00:00 16.6 6 Este 15 Sudeste 0 -- -- 73
2020-10-20 17:00:00 17.9 4 Este 22 Sudeste 0 -- -- 66
2020-10-20 16:00:00 19.1 6 Este 17 Este 0 -- -- 61
2020-10-20 15:00:00 18.5 7 Este 16 Este 0 -- -- 59
2020-10-20 14:00:00 18.2 6 Este 14 Nordeste 0 -- -- 57
2020-10-20 13:00:00 15.6 4 Sudeste 13 Este 0 -- -- 68
2020-10-20 12:00:00 14.3 4 Este 12 Sudeste 0 -- -- 73
2020-10-20 11:00:00 12.8 3 Este 9 Este 0 -- -- 73
2020-10-20 10:00:00 10.7 0 Calma 6 Este 0 -- -- 79
2020-10-20 09:00:00 8.7 0 Calma 6 Sudoeste 0 -- -- 85
2020-10-20 08:00:00 7.3 0 Calma 6 Sudoeste 0 -- -- 87
2020-10-20 07:00:00 6.2 0 Calma 5 Oeste 0 -- -- 90
2020-10-20 06:00:00 6 0 Calma 4 Sur 0 -- -- 89
2020-10-20 05:00:00 6.6 0 Calma 5 Sudoeste 0 -- -- 88
2020-10-20 04:00:00 7.1 0 Calma 4 Oeste 0 -- -- 88
2020-10-20 03:00:00 6.9 0 Calma 8 Oeste 0 -- -- 88
2020-10-20 02:00:00 6.8 0 Calma 4 Sur 0 -- -- 88
2020-10-20 01:00:00 7.1 0 Calma 4 Sur 0 -- -- 87
2020-10-20 00:00:00 8.4 0 Calma 5 Oeste 0 -- -- 84
2020-10-19 23:00:00 9.4 0 Calma 5 Sur 0 -- -- 82
2020-10-19 22:00:00 10.8 2 Sur 4 Oeste 0 -- -- 77
2020-10-19 21:00:00 13.3 3 Sudoeste 11 Sur 0 -- -- 71
2020-10-19 20:00:00 15.3 3 Sudeste 17 Sur 0 -- -- 64
2020-10-19 19:00:00 17.6 5 Sudeste 16 Este 0 -- -- 55
2020-10-19 18:00:00 19.5 6 Sudeste 21 Sudeste 0 -- -- 48
2020-10-19 17:00:00 21.4 7 Sudeste 25 Este 0 -- -- 43
2020-10-19 16:00:00 22.1 8 Sudeste 21 Sur 0 -- -- 41
2020-10-19 15:00:00 21.5 7 Sur 21 Sur 0 -- -- 41
2020-10-19 14:00:00 20.7 9 Sur 20 Sudoeste 0 -- -- 41
2020-10-19 13:00:00 19.3 9 Sur 23 Sudeste 0 -- -- 39
2020-10-19 12:00:00 16.9 8 Sur 17 Sur 0 -- -- 47
2020-10-19 11:00:00 12.6 4 Este 9 Sudeste 0 -- -- 81
2020-10-19 10:00:00 6.9 0 Calma 3 Sudoeste 0 -- -- 97
2020-10-19 09:00:00 2.8 0 Calma 6 Sudoeste 0 -- -- 94
2020-10-19 08:00:00 2.8 0 Calma 5 Sur 0 -- -- 93
2020-10-19 07:00:00 3 0 Calma 5 Sur 0 -- -- 92
2020-10-19 06:00:00 3.5 0 Calma 6 Sudoeste 0 -- -- 91
2020-10-19 05:00:00 4.2 0 Calma 6 Sur 0 -- -- 90
2020-10-19 04:00:00 5.1 0 Calma 6 Sudoeste 0 -- -- 90
2020-10-19 03:00:00 6 0 Calma 8 Sudoeste 0 -- -- 89
2020-10-19 02:00:00 6.7 2 Sudoeste 6 Sudoeste 0 -- -- 90
2020-10-19 01:00:00 7.4 2 Sudoeste 6 Sur 0 -- -- 86
2020-10-19 00:00:00 8.4 3 Sudoeste 8 Sudoeste 0 -- -- 87
2020-10-18 23:00:00 10 0 Calma 4 Sur 0 -- -- 79
2020-10-18 22:00:00 12 0 Calma 7 Sur 0 -- -- 77
2020-10-18 21:00:00 13.9 2 Sur 8 Sur 0 -- -- 74
2020-10-18 20:00:00 15.6 4 Sudeste 17 Este 0 -- -- 68
2020-10-18 19:00:00 18.4 5 Este 15 Sur 0 -- -- 54
2020-10-18 18:00:00 20.5 7 Sudeste 18 Sur 0 -- -- 42
2020-10-18 17:00:00 22.7 4 Oeste 19 Sur 0 -- -- 25
2020-10-18 16:00:00 23 6 Sur 18 Sur 0 -- -- 23
2020-10-18 15:00:00 22.2 9 Sudoeste 22 Nordeste 0 -- -- 26
2020-10-18 14:00:00 20.9 6 Este 16 Este 0 -- -- 28
2020-10-18 13:00:00 18.8 5 Este 10 Este 0 -- -- 30
2020-10-18 12:00:00 16.1 3 Nordeste 8 Nordeste 0 -- -- 35
2020-10-18 11:00:00 12.1 0 Calma 5 Noroeste 0 -- -- 45
2020-10-18 10:00:00 5.5 0 Calma 3 Sudoeste 0 -- -- 70
2020-10-18 09:00:00 0.5 0 Calma 4 Oeste 0 -- -- 80
2020-10-18 08:00:00 0.5 0 Calma 2 Sur 0 -- -- 78
2020-10-18 07:00:00 1 0 Calma 4 Sudoeste 0 -- -- 74
2020-10-18 06:00:00 1.5 0 Calma 4 Oeste 0 -- -- 72
2020-10-18 05:00:00 2.3 0 Calma 4 Sudoeste 0 -- -- 69
2020-10-18 04:00:00 3.1 0 Calma 6 Sudoeste 0 -- -- 65
2020-10-18 03:00:00 4.3 3 Sudoeste 8 Sudoeste 0 -- -- 62
2020-10-18 02:00:00 5.9 0 Calma 9 Sudoeste 0 -- -- 56
2020-10-18 01:00:00 5.6 4 Sudoeste 12 Sudoeste 0 -- -- 58
2020-10-18 00:00:00 7.2 0 Calma 8 Sur 0 -- -- 53
2020-10-17 23:00:00 8.3 4 Sudoeste 10 Sudoeste 0 -- -- 50
2020-10-17 22:00:00 8.3 0 Calma 7 Oeste 0 -- -- 49
2020-10-17 21:00:00 10.7 0 Calma 7 Sudoeste 0 -- -- 43
2020-10-17 20:00:00 13.6 3 Oeste 11 Oeste 0 -- -- 38
2020-10-17 19:00:00 17.2 5 Noroeste 22 Oeste 0 -- -- 31
2020-10-17 18:00:00 18.5 10 Noroeste 23 Noroeste 0 -- -- 30
2020-10-17 17:00:00 20.3 10 Noroeste 30 Noroeste 0 -- -- 26
2020-10-17 16:00:00 20.4 10 Oeste 26 Oeste 0 -- -- 26
2020-10-17 15:00:00 20.1 10 Noroeste 28 Noroeste 0 -- -- 26
2020-10-17 14:00:00 19.5 10 Oeste 30 Oeste 0 -- -- 27
2020-10-17 13:00:00 18.4 10 Noroeste 28 Oeste 0 -- -- 29
2020-10-17 12:00:00 16.2 7 Oeste 22 Noroeste 0 -- -- 32
2020-10-17 11:00:00 10.9 2 Norte 6 Nordeste 0 -- -- 46
2020-10-17 10:00:00 4.9 0 Calma 4 Noroeste 0 -- -- 67
2020-10-17 09:00:00 0.2 0 Calma 0 Calma 0 -- -- 77
2020-10-17 08:00:00 0.3 0 Calma 3 Sudoeste 0 -- -- 75
2020-10-17 07:00:00 0.6 0 Calma 3 Oeste 0 -- -- 74
2020-10-17 06:00:00 0.5 0 Calma 4 Sudoeste 0 -- -- 73
2020-10-17 05:00:00 0.9 0 Calma 4 Sudoeste 0 -- -- 68
2020-10-17 04:00:00 2.2 0 Calma 4 Sur 0 -- -- 65
2020-10-17 03:00:00 3.9 3 Sudoeste 11 Sur 0 -- -- 59
2020-10-17 02:00:00 3.8 0 Calma 7 Sur 0 -- -- 58
2020-10-17 01:00:00 5 3 Sudoeste 9 Sur 0 -- -- 54
2020-10-17 00:00:00 5.2 4 Sudoeste 9 Sur 0 -- -- 54
2020-10-16 23:00:00 5.4 2 Sudoeste 8 Sudoeste 0 -- -- 51
2020-10-16 22:00:00 6.4 2 Sudoeste 7 Sur 0 -- -- 47
2020-10-16 21:00:00 8 2 Sudoeste 6 Sur 0 -- -- 42
2020-10-16 20:00:00 11.3 2 Sudoeste 10 Noroeste 0 -- -- 34
2020-10-16 19:00:00 14.5 5 Noroeste 22 Noroeste 0 -- -- 28
2020-10-16 18:00:00 16.2 6 Noroeste 21 Norte 0 -- -- 26
2020-10-16 17:00:00 17.7 10 Oeste 25 Norte 0 -- -- 24
2020-10-16 16:00:00 17.6 10 Noroeste 28 Oeste 0 -- -- 26
2020-10-16 15:00:00 17.5 10 Noroeste 26 Oeste 0 -- -- 25
2020-10-16 14:00:00 16.7 10 Oeste 25 Oeste 0 -- -- 28
2020-10-16 13:00:00 15.3 8 Oeste 23 Sudoeste 0 -- -- 35
2020-10-16 12:00:00 13 6 Oeste 22 Oeste 0 -- -- 40
2020-10-16 11:00:00 10.1 6 Oeste 15 Noroeste 0 -- -- 51
2020-10-16 10:00:00 6.4 4 Noroeste 9 Oeste 0 -- -- 65
2020-10-16 09:00:00 3 4 Oeste 9 Oeste 0 -- -- 79
2020-10-16 08:00:00 2 2 Sudoeste 10 Oeste 0 -- -- 81
2020-10-16 07:00:00 3 0 Calma 7 Sur 0 -- -- 76
2020-10-16 06:00:00 4.7 3 Este 14 Oeste 0 -- -- 71
2020-10-16 05:00:00 4 3 Oeste 9 Oeste 0 -- -- 74
2020-10-16 04:00:00 3.4 0 Calma 8 Sudoeste 0 -- -- 75
2020-10-16 03:00:00 3 0 Calma 5 Sudoeste 0 -- -- 72
2020-10-16 02:00:00 3.9 0 Calma 6 Sudoeste 0 -- -- 68
2020-10-16 01:00:00 5.1 0 Calma 4 Sudoeste 0 -- -- 63
2020-10-16 00:00:00 7.2 2 Sudoeste 6 Sudoeste 0 -- -- 56
2020-10-15 23:00:00 7.9 2 Sudoeste 5 Oeste 0 -- -- 53
2020-10-15 22:00:00 10.4 0 Calma 14 Oeste 0 -- -- 46
2020-10-15 21:00:00 12.7 7 Noroeste 21 Noroeste 0 -- -- 40
2020-10-15 20:00:00 13.6 6 Noroeste 24 Oeste 0 -- -- 37
2020-10-15 19:00:00 15.2 9 Noroeste 28 Oeste 0 -- -- 34
2020-10-15 18:00:00 16.6 13 Noroeste 33 Oeste 0 -- -- 32
2020-10-15 17:00:00 18.3 11 Noroeste 36 Noroeste 0 -- -- 28
2020-10-15 16:00:00 18.5 13 Noroeste 36 Noroeste 0 -- -- 29
2020-10-15 15:00:00 18.2 15 Noroeste 34 Norte 0 -- -- 30
2020-10-15 14:00:00 17.5 13 Noroeste 29 Noroeste 0 -- -- 30
2020-10-15 13:00:00 17 10 Noroeste 28 Noroeste 0 -- -- 31
2020-10-15 12:00:00 15 9 Noroeste 22 Noroeste 0 -- -- 35
2020-10-15 11:00:00 12.8 5 Noroeste 14 Norte 0 -- -- 40
2020-10-15 10:00:00 9.5 3 Noroeste 13 Sudoeste 0 -- -- 49
2020-10-15 09:00:00 6 4 Sudoeste 12 Sudoeste 0 -- -- 64
2020-10-15 08:00:00 5.7 5 Sudoeste 10 Oeste 0 -- -- 64
2020-10-15 07:00:00 6.9 4 Sudoeste 18 Oeste 0 -- -- 60
2020-10-15 06:00:00 7.4 5 Noroeste 15 Oeste 0 -- -- 59
2020-10-15 05:00:00 7.1 6 Oeste 13 Noroeste 0 -- -- 58
2020-10-15 04:00:00 6.3 4 Oeste 11 Sudoeste 0 -- -- 59
2020-10-15 03:00:00 7.2 2 Sudeste 14 Oeste 0 -- -- 55
2020-10-15 02:00:00 6.9 2 Sudoeste 10 Sudoeste 0 -- -- 56
2020-10-15 01:00:00 7.6 3 Sur 7 Sudoeste 0 -- -- 53
2020-10-15 00:00:00 10.7 2 Sudeste 17 Noroeste 0 -- -- 44
2020-10-14 23:00:00 12 9 Oeste 23 Noroeste 0 -- -- 41
2020-10-14 22:00:00 12.8 6 Noroeste 20 Noroeste 0 -- -- 39
2020-10-14 21:00:00 12.8 7 Oeste 18 Noroeste 0 -- -- 39
2020-10-14 20:00:00 14.3 11 Oeste 31 Noroeste 0 -- -- 35
2020-10-14 19:00:00 16.1 16 Oeste 32 Oeste 0 -- -- 32
2020-10-14 18:00:00 18 14 Noroeste 35 Noroeste 0 -- -- 31
2020-10-14 17:00:00 19.4 10 Noroeste 31 Noroeste 0 -- -- 31
2020-10-14 16:00:00 20.1 12 Oeste 37 Noroeste 0 -- -- 26
2020-10-14 15:00:00 20 12 Noroeste 32 Oeste 0 -- -- 27
2020-10-14 14:00:00 20 11 Noroeste 33 Oeste 0 -- -- 35
2020-10-14 13:00:00 19.6 12 Noroeste 27 Noroeste 0 -- -- 38
2020-10-14 12:00:00 18.3 6 Noroeste 22 Oeste 0 -- -- 45
2020-10-14 11:00:00 13.9 5 Oeste 22 Noroeste 0 -- -- 60
2020-10-14 10:00:00 12 12 Oeste 24 Oeste 0 -- -- 64
2020-10-14 09:00:00 11.3 10 Oeste 24 Oeste 0 -- -- 65
2020-10-14 08:00:00 11.2 8 Oeste 18 Oeste 0 -- -- 64
2020-10-14 07:00:00 12.5 9 Oeste 19 Noroeste 0 -- -- 59
2020-10-14 06:00:00 12.2 6 Oeste 15 Sudoeste 0 -- -- 60
2020-10-14 05:00:00 12.9 8 Oeste 18 Oeste 0 -- -- 58
2020-10-14 04:00:00 13.2 8 Oeste 18 Oeste 0 -- -- 56
2020-10-14 03:00:00 14.1 6 Oeste 17 Oeste 0 -- -- 53
2020-10-14 02:00:00 15.3 7 Oeste 20 Oeste 0 -- -- 50
2020-10-14 01:00:00 13.9 6 Oeste 13 Oeste 0 -- -- 54
2020-10-14 00:00:00 11.8 3 Sudoeste 10 Sudoeste 0 -- -- 61
2020-10-13 23:00:00 13.2 5 Sudoeste 11 Sudoeste 0 -- -- 56
2020-10-13 22:00:00 15.2 3 Sudoeste 18 Oeste 0 -- -- 51
2020-10-13 21:00:00 16.8 8 Oeste 20 Oeste 0 -- -- 47
2020-10-13 20:00:00 17.6 7 Oeste 19 Oeste 0 -- -- 47
2020-10-13 19:00:00 19.2 12 Oeste 36 Oeste 0 -- -- 43
2020-10-13 18:00:00 20.5 17 Noroeste 35 Noroeste 0 -- -- 40
2020-10-13 17:00:00 22.3 15 Noroeste 34 Oeste 0 -- -- 36
2020-10-13 16:00:00 23.2 14 Oeste 33 Noroeste 0 -- -- 35
2020-10-13 15:00:00 22.9 9 Noroeste 31 Oeste 0 -- -- 36
2020-10-13 14:00:00 22.2 9 Noroeste 26 Oeste 0 -- -- 40
2020-10-13 13:00:00 21.1 12 Noroeste 28 Noroeste 0 -- -- 41
2020-10-13 12:00:00 19.5 9 Noroeste 22 Noroeste 0 -- -- 42
2020-10-13 11:00:00 17.2 9 Noroeste 20 Noroeste 0 -- -- 44
2020-10-13 10:00:00 13.5 6 Noroeste 14 Oeste 0 -- -- 50
2020-10-13 09:00:00 8.6 4 Oeste 12 Sudoeste 0 -- -- 67
2020-10-13 08:00:00 7.5 3 Sudoeste 8 Oeste 0 -- -- 70
2020-10-13 07:00:00 7.6 0 Calma 6 Noroeste 0 -- -- 68
2020-10-13 06:00:00 8.7 2 Noroeste 11 Noroeste 0 -- -- 63
2020-10-13 05:00:00 9 0 Calma 15 Oeste 0 -- -- 61
2020-10-13 04:00:00 -- -- -- -- -- -- -- -- --
2020-10-13 03:00:00 9.4 3 Oeste 12 Oeste 0 -- -- 58
2020-10-13 02:00:00 9.8 3 Sudoeste 12 Oeste 0 -- -- 56
2020-10-13 01:00:00 -- -- -- -- -- -- -- -- --
2020-10-13 00:00:00 11.5 3 Oeste 16 Noroeste 0 -- -- 50
2020-10-12 23:00:00 13.1 9 Oeste 22 Oeste 0 -- -- 45
2020-10-12 22:00:00 13.3 9 Oeste 21 Oeste 0 -- -- 43
2020-10-12 21:00:00 13.7 8 Oeste 17 Oeste 0 -- -- 42
2020-10-12 20:00:00 14.6 4 Oeste 21 Oeste 0 -- -- 40
2020-10-12 19:00:00 16.9 7 Noroeste 22 Noroeste 0 -- -- 35
2020-10-12 18:00:00 -- -- -- -- -- -- -- -- --
2020-10-12 17:00:00 19.3 10 Oeste 21 Oeste 0 -- -- 31
2020-10-12 16:00:00 19.1 8 Noroeste 21 Noroeste 0 -- -- 33
2020-10-12 15:00:00 18.3 5 Nordeste 15 Nordeste 0 -- -- 34
2020-10-12 14:00:00 17.3 5 Oeste 15 Noroeste 0 -- -- 36
2020-10-12 13:00:00 15.8 3 Oeste 12 Nordeste 0 -- -- 39
2020-10-12 12:00:00 14.2 5 Noroeste 15 Noroeste 0 -- -- 45
2020-10-12 11:00:00 12.2 7 Norte 18 Norte 0 -- -- 51
2020-10-12 10:00:00 9 6 Oeste 16 Oeste 0 -- -- 61
2020-10-12 09:00:00 5.2 0 Calma 6 Sudoeste 0 -- -- 74
2020-10-12 08:00:00 5.5 2 Oeste 15 Noroeste 0 -- -- 71
2020-10-12 07:00:00 6.8 0 Calma 15 Noroeste 0 -- -- 66
2020-10-12 06:00:00 7.8 3 Oeste 21 Noroeste 0 -- -- 63
2020-10-12 05:00:00 8.4 7 Noroeste 24 Norte 0 -- -- 60
2020-10-12 04:00:00 -- -- -- -- -- -- -- -- --
2020-10-12 03:00:00 9.4 6 Norte 32 Noroeste 0 -- -- 55
2020-10-12 02:00:00 9.9 8 Noroeste 23 Noroeste 0 -- -- 53
2020-10-12 01:00:00 10.1 6 Nordeste 15 Nordeste 0 -- -- 52
2020-10-12 00:00:00 10 0 Calma 10 Noroeste 0 -- -- 53
2020-10-11 23:00:00 9.3 2 Norte 10 Norte 0 -- -- 56
2020-10-11 22:00:00 9.8 0 Calma 3 Este 0 -- -- 65
2020-10-11 21:00:00 -- -- -- -- -- -- -- -- --
2020-10-11 20:00:00 -- -- -- -- -- -- -- -- --
2020-10-11 19:00:00 18.2 4 Norte 18 Norte 0 -- -- 30
2020-10-11 18:00:00 19.4 8 Norte 23 Norte 0 -- -- 26
2020-10-11 17:00:00 20.2 11 Norte 29 Norte 0 -- -- 22
2020-10-11 16:00:00 21 12 Norte 28 Norte 0 -- -- 24
2020-10-11 15:00:00 21 10 Norte 24 Noroeste 0 -- -- 28
2020-10-11 14:00:00 19.8 7 Noroeste 22 Oeste 0 -- -- 34
2020-10-11 13:00:00 17.8 8 Noroeste 18 Oeste 0 -- -- 50
2020-10-11 12:00:00 15.6 4 Norte 13 Norte 0 -- -- 54
2020-10-11 11:00:00 13.7 5 Norte 17 Norte 0 -- -- 65
2020-10-11 10:00:00 12.6 4 Norte 14 Nordeste 0 -- -- 75
2020-10-11 09:00:00 12.7 2 Este 8 Este 0 -- -- 89
2020-10-11 08:00:00 13.3 4 Este 12 Este 0 -- -- 92
2020-10-11 07:00:00 13.6 2 Este 12 Sudeste 0.2 -- -- 93
2020-10-11 06:00:00 14.1 3 Este 10 Este 0.2 -- -- 92
2020-10-11 05:00:00 15.4 0 Calma 10 Este 0 -- -- 93
2020-10-11 04:00:00 15.3 0 Calma 5 Sudeste 0 -- -- 93
2020-10-11 03:00:00 15 0 Calma 7 Nordeste 0 -- -- 92
2020-10-11 02:00:00 15.4 2 Este 8 Este 0 -- -- 92
2020-10-11 01:00:00 16.1 0 Calma 3 Sudeste 0 -- -- 93
2020-10-11 00:00:00 16.1 0 Calma 10 Este 0 -- -- 94
2020-10-10 23:00:00 15.4 0 Calma 4 Sur 0 -- -- 92
2020-10-10 22:00:00 15.3 3 Sur 7 Sudeste 0 -- -- 90
2020-10-10 21:00:00 16.5 4 Este 11 Sudeste 0 -- -- 90
2020-10-10 20:00:00 17.9 2 Sur 17 Sudeste 1.4 -- -- 82
2020-10-10 19:00:00 21 9 Sudeste 17 Sudeste 0 -- -- 63
2020-10-10 18:00:00 22.5 6 Sudeste 18 Sudeste 0 -- -- 60
2020-10-10 17:00:00 23.3 5 Este 14 Este 0 -- -- 55
2020-10-10 16:00:00 23.2 5 Este 17 Nordeste 0 -- -- 59
2020-10-10 15:00:00 22.7 6 Este 14 Nordeste 0 -- -- 62
2020-10-10 14:00:00 20.1 4 Este 15 Nordeste 0 -- -- 72
2020-10-10 13:00:00 18.5 3 Nordeste 7 Sudeste 0 -- -- 81
2020-10-10 12:00:00 16.7 2 Este 7 Este 0 -- -- 92
2020-10-10 11:00:00 14.7 0 Calma 4 Nordeste 0 -- -- 97
2020-10-10 10:00:00 13.8 0 Calma 3 Norte 0 -- -- 97
2020-10-10 09:00:00 12.7 2 Sudoeste 3 Sudoeste 0 -- -- 96
2020-10-10 08:00:00 11.3 2 Sudoeste 4 Sudoeste 0 -- -- 96
2020-10-10 07:00:00 10.2 0 Calma 2 Sur 0 -- -- 94
2020-10-10 06:00:00 10.2 0 Calma 4 Sudoeste 0 -- -- 91
2020-10-10 05:00:00 11.4 0 Calma 8 Sur 0 -- -- 92
2020-10-10 04:00:00 12.6 3 Sudoeste 7 Sudoeste 0 -- -- 92
2020-10-10 03:00:00 13 3 Sudoeste 7 Sudoeste 0 -- -- 93
2020-10-10 02:00:00 12.3 2 Sur 5 Sur 0 -- -- 92
2020-10-10 01:00:00 12.6 2 Sudoeste 4 Sur 0 -- -- 87
2020-10-10 00:00:00 13.7 0 Calma 3 Sudoeste 0 -- -- 84
2020-10-09 23:00:00 15.2 0 Calma 6 Sudeste 0 -- -- 80
2020-10-09 22:00:00 16.3 2 Sur 5 Sudeste 0 -- -- 77
2020-10-09 21:00:00 18.5 0 Calma 12 Sur 0 -- -- 70
2020-10-09 20:00:00 20.8 5 Sur 13 Sudeste 0 -- -- 63
2020-10-09 19:00:00 24.8 5 Sudeste 17 Sudeste 0 -- -- 47
2020-10-09 18:00:00 27.1 7 Noroeste 19 Noroeste 0 -- -- 26
2020-10-09 17:00:00 28.5 8 Noroeste 22 Noroeste 0 -- -- 26
2020-10-09 16:00:00 29 7 Oeste 19 Noroeste 0 -- -- 26
2020-10-09 15:00:00 27.7 4 Sudeste 18 Oeste 0 -- -- 34
2020-10-09 14:00:00 26.4 5 Oeste 13 Sudoeste 0 -- -- 40
2020-10-09 13:00:00 24.4 3 Este 10 Nordeste 0 -- -- 50
2020-10-09 12:00:00 20.8 4 Nordeste 9 Nordeste 0 -- -- 70
2020-10-09 11:00:00 17.1 3 Norte 6 Este 0 -- -- 85
2020-10-09 10:00:00 14.6 0 Calma 8 Oeste 0 -- -- 96
2020-10-09 09:00:00 13.6 4 Oeste 10 Oeste 0 -- -- 96
2020-10-09 08:00:00 13.2 0 Calma 6 Oeste 0 -- -- 96
2020-10-09 07:00:00 13.1 0 Calma 5 Sudoeste 0 -- -- 96
2020-10-09 06:00:00 12.3 0 Calma 2 Sur 0 -- -- 96
2020-10-09 05:00:00 10.9 0 Calma 5 Sudoeste 0 -- -- 94
2020-10-09 04:00:00 10.7 2 Oeste 7 Sudoeste 0 -- -- 93
2020-10-09 03:00:00 11.3 2 Sudoeste 7 Sudoeste 0 -- -- 91
2020-10-09 02:00:00 12.2 3 Sudoeste 7 Sudoeste 0 -- -- 92
2020-10-09 01:00:00 13 3 Sudoeste 7 Sudoeste 0 -- -- 91
2020-10-09 00:00:00 13.4 3 Sur 8 Sur 0 -- -- 91
2020-10-08 23:00:00 13.9 0 Calma 7 Sudoeste 0 -- -- 85
2020-10-08 22:00:00 15.2 4 Sudoeste 8 Sudoeste 0 -- -- 83
2020-10-08 21:00:00 16.6 3 Sur 8 Sur 0 -- -- 76
2020-10-08 20:00:00 19.8 3 Sudeste 14 Sudeste 0 -- -- 68
2020-10-08 19:00:00 22.7 6 Sudeste 15 Sur 0 -- -- 57
2020-10-08 18:00:00 24.4 8 Sur 21 Sur 0 -- -- 46
2020-10-08 17:00:00 25.6 8 Sur 23 Sudeste 0 -- -- 46
2020-10-08 16:00:00 25.9 8 Sur 22 Sur 0 -- -- 46
2020-10-08 15:00:00 25.5 7 Sur 20 Sur 0 -- -- 44
2020-10-08 14:00:00 24.9 6 Sur 17 Sur 0 -- -- 44
2020-10-08 13:00:00 23.7 6 Sur 18 Sur 0 -- -- 48
2020-10-08 12:00:00 21.7 7 Sudeste 17 Sudeste 0 -- -- 53
2020-10-08 11:00:00 18.2 3 Nordeste 9 Este 0 -- -- 68
2020-10-08 10:00:00 13.7 3 Este 8 Nordeste 0 -- -- 96
2020-10-08 09:00:00 9.2 0 Calma 6 Oeste 0 -- -- 93
2020-10-08 08:00:00 9.1 0 Calma 4 Sudoeste 0 -- -- 91
2020-10-08 07:00:00 9.5 3 Sudoeste 6 Sudoeste 0 -- -- 91
2020-10-08 06:00:00 9.3 2 Sur 6 Sur 0 -- -- 88
2020-10-08 05:00:00 9.5 0 Calma 3 Oeste 0 -- -- 86
2020-10-08 04:00:00 10.2 0 Calma 7 Sudoeste 0 -- -- 83
2020-10-08 03:00:00 10.7 3 Sudoeste 8 Sudoeste 0 -- -- 82
2020-10-08 02:00:00 11.2 2 Sudoeste 5 Sudoeste 0 -- -- 80
2020-10-08 01:00:00 12.2 0 Calma 4 Sudoeste 0 -- -- 75
2020-10-08 00:00:00 13.5 2 Sur 4 Sudoeste 0 -- -- 72
2020-10-07 23:00:00 15.1 0 Calma 5 Oeste 0 -- -- 66
2020-10-07 22:00:00 18.1 2 Sudoeste 15 Sur 0 -- -- 57
2020-10-07 21:00:00 19.1 2 Sudeste 12 Sudeste 0 -- -- 55
2020-10-07 20:00:00 21.7 0 Calma 9 Este 0 -- -- 44
2020-10-07 19:00:00 25.6 2 Oeste 8 Oeste 0 -- -- 34
2020-10-07 18:00:00 27.2 3 Este 12 Norte 0 -- -- 30
2020-10-07 17:00:00 28 5 Norte 15 Nordeste 0 -- -- 28
2020-10-07 16:00:00 27.9 6 Norte 17 Norte 0 -- -- 28
2020-10-07 15:00:00 27.5 5 Norte 18 Noroeste 0 -- -- 29
2020-10-07 14:00:00 26.8 7 Noroeste 19 Norte 0 -- -- 32
2020-10-07 13:00:00 25.3 4 Noroeste 14 Noroeste 0 -- -- 37
2020-10-07 12:00:00 23.5 4 Norte 10 Oeste 0 -- -- 44
2020-10-07 11:00:00 21.3 3 Norte 12 Norte 0 -- -- 53
2020-10-07 10:00:00 18.1 6 Oeste 14 Oeste 0 -- -- 65
2020-10-07 09:00:00 12.6 3 Sudoeste 8 Oeste 0 -- -- 83
2020-10-07 08:00:00 12 2 Nordeste 13 Oeste 0 -- -- 83
2020-10-07 07:00:00 10.9 3 Sur 8 Sudoeste 0 -- -- 87
2020-10-07 06:00:00 10.4 2 Sudoeste 5 Sudoeste 0 -- -- 88
2020-10-07 05:00:00 10 2 Sudoeste 9 Sur 0 -- -- 85
2020-10-07 04:00:00 11.1 0 Calma 9 Sudoeste 0 -- -- 81
2020-10-07 03:00:00 12.5 2 Sudoeste 9 Oeste 0 -- -- 77
2020-10-07 02:00:00 14 3 Sudoeste 9 Oeste 0 -- -- 73
2020-10-07 01:00:00 14.7 4 Sudoeste 12 Sudoeste 0 -- -- 70
2020-10-07 00:00:00 15.9 5 Oeste 14 Oeste 0 -- -- 66
2020-10-06 23:00:00 15.4 6 Oeste 13 Oeste 0 -- -- 67
2020-10-06 22:00:00 15.1 5 Oeste 10 Sudoeste 0 -- -- 66
2020-10-06 21:00:00 16.9 3 Oeste 8 Oeste 0 -- -- 59
2020-10-06 20:00:00 19.9 2 Sur 17 Oeste 0 -- -- 50
2020-10-06 19:00:00 22.4 8 Oeste 19 Oeste 0 -- -- 43
2020-10-06 18:00:00 24.1 8 Noroeste 21 Noroeste 0 -- -- 40
2020-10-06 17:00:00 25.2 8 Noroeste 24 Noroeste 0 -- -- 38
2020-10-06 16:00:00 24.5 9 Oeste 22 Noroeste 0 -- -- 40
2020-10-06 15:00:00 24.1 9 Noroeste 26 Noroeste 0 -- -- 39
2020-10-06 14:00:00 23 12 Noroeste 27 Noroeste 0 -- -- 41
2020-10-06 13:00:00 21.9 11 Noroeste 24 Noroeste 0 -- -- 44
2020-10-06 12:00:00 20.1 10 Oeste 19 Oeste 0 -- -- 46
2020-10-06 11:00:00 16.8 7 Oeste 18 Sudoeste 0 -- -- 49
2020-10-06 10:00:00 14.4 6 Oeste 17 Oeste 0 -- -- 53
2020-10-06 09:00:00 10.1 4 Oeste 17 Oeste 0 -- -- 69
2020-10-06 08:00:00 7.4 2 Sudeste 6 Sudeste 0 -- -- 77
2020-10-06 07:00:00 6.6 0 Calma 8 Sudoeste 0 -- -- 79
2020-10-06 06:00:00 6.5 0 Calma 7 Sudoeste 0 -- -- 77
2020-10-06 05:00:00 7 0 Calma 7 Oeste 0 -- -- 73
2020-10-06 04:00:00 7.8 2 Oeste 8 Noroeste 0 -- -- 71
2020-10-06 03:00:00 9 4 Oeste 10 Oeste 0 -- -- 66
2020-10-06 02:00:00 8.8 4 Oeste 8 Oeste 0 -- -- 67
2020-10-06 01:00:00 8.9 2 Sudoeste 7 Sudoeste 0 -- -- 66
2020-10-06 00:00:00 9.1 0 Calma 9 Sudoeste 0 -- -- 65
2020-10-05 23:00:00 10.4 2 Sudoeste 11 Oeste 0 -- -- 60
2020-10-05 22:00:00 12.7 5 Oeste 20 Oeste 0 -- -- 51
2020-10-05 21:00:00 14 10 Oeste 25 Oeste 0 -- -- 47
2020-10-05 20:00:00 15.1 10 Oeste 27 Oeste 0 -- -- 45
2020-10-05 19:00:00 16.8 12 Noroeste 28 Oeste 0 -- -- 40
2020-10-05 18:00:00 18.2 12 Noroeste 26 Oeste 0 -- -- 36
2020-10-05 17:00:00 19.1 9 Noroeste 27 Noroeste 0 -- -- 36
2020-10-05 16:00:00 19.2 11 Noroeste 30 Oeste 0 -- -- 35
2020-10-05 15:00:00 19.1 13 Noroeste 26 Oeste 0 -- -- 37
2020-10-05 14:00:00 18.4 9 Noroeste 31 Noroeste 0 -- -- 39
2020-10-05 13:00:00 17.4 10 Noroeste 25 Noroeste 0 -- -- 45
2020-10-05 12:00:00 15.9 7 Oeste 20 Norte 0 -- -- 49
2020-10-05 11:00:00 13.6 8 Noroeste 24 Noroeste 0 -- -- 61
2020-10-05 10:00:00 11.5 9 Noroeste 25 Oeste 0 -- -- 71
2020-10-05 09:00:00 9.2 13 Oeste 26 Noroeste 0 -- -- 80
2020-10-05 08:00:00 9.4 8 Oeste 19 Oeste 0 -- -- 80
2020-10-05 07:00:00 8.9 6 Oeste 16 Oeste 0 -- -- 84
2020-10-05 06:00:00 9.4 7 Oeste 17 Oeste 0 -- -- 82
2020-10-05 05:00:00 9.9 8 Oeste 16 Oeste 0 -- -- 80
2020-10-05 04:00:00 10.3 7 Oeste 18 Oeste 0 -- -- 79
2020-10-05 03:00:00 10.8 8 Oeste 18 Noroeste 0 -- -- 78
2020-10-05 02:00:00 10.8 10 Oeste 19 Oeste 0 -- -- 79
2020-10-05 01:00:00 11 9 Oeste 22 Oeste 0 -- -- 77
2020-10-05 00:00:00 11.3 8 Oeste 23 Oeste 0 -- -- 76
2020-10-04 23:00:00 12.2 11 Oeste 26 Oeste 0 -- -- 73
2020-10-04 22:00:00 12.7 12 Oeste 23 Oeste 0 -- -- 73
2020-10-04 21:00:00 13.5 11 Oeste 29 Oeste 0 -- -- 71
2020-10-04 20:00:00 14.4 15 Oeste 40 Oeste 0 -- -- 66
2020-10-04 19:00:00 16 20 Oeste 49 Oeste 0 -- -- 59
2020-10-04 18:00:00 17.3 21 Oeste 45 Noroeste 0 -- -- 54
2020-10-04 17:00:00 18 19 Oeste 42 Oeste 0 -- -- 51
2020-10-04 16:00:00 17.8 19 Oeste 40 Noroeste 0 -- -- 50
2020-10-04 15:00:00 19.7 19 Oeste 41 Oeste 0 -- -- 41
2020-10-04 14:00:00 19.3 19 Oeste 35 Oeste 0 -- -- 40
2020-10-04 13:00:00 17.9 13 Oeste 30 Oeste 0 -- -- 45
2020-10-04 12:00:00 15.4 13 Oeste 37 Oeste 0 -- -- 53
2020-10-04 11:00:00 12.7 15 Oeste 37 Oeste 0 -- -- 60
2020-10-04 10:00:00 11.3 15 Oeste 36 Noroeste 0 -- -- 67
2020-10-04 09:00:00 9.2 10 Oeste 26 Oeste 0 -- -- 73
2020-10-04 08:00:00 7.8 4 Sudoeste 17 Oeste 0 -- -- 75
2020-10-04 07:00:00 7 4 Sudoeste 10 Sudoeste 0 -- -- 77
2020-10-04 06:00:00 7.4 5 Oeste 15 Oeste 0 -- -- 74
2020-10-04 05:00:00 6.6 4 Oeste 9 Sudoeste 0 -- -- 77
2020-10-04 04:00:00 8.3 4 Sudoeste 18 Sudoeste 0 -- -- 70
2020-10-04 03:00:00 9.4 6 Oeste 15 Oeste 0 -- -- 66
2020-10-04 02:00:00 9.8 6 Oeste 18 Oeste 0 -- -- 66
2020-10-04 01:00:00 10 5 Oeste 17 Sudoeste 0 -- -- 66
2020-10-04 00:00:00 10.1 5 Sudoeste 16 Sudoeste 0 -- -- 66
2020-10-03 23:00:00 10.5 5 Sudoeste 17 Oeste 0 -- -- 64
2020-10-03 22:00:00 11.5 7 Oeste 18 Oeste 0 -- -- 60
2020-10-03 21:00:00 11.8 7 Oeste 18 Oeste 0 -- -- 57
2020-10-03 20:00:00 13 9 Oeste 25 Oeste 0 -- -- 51
2020-10-03 19:00:00 14.5 12 Noroeste 33 Oeste 0 -- -- 47
2020-10-03 18:00:00 15.8 18 Oeste 35 Noroeste 0 -- -- 45
2020-10-03 17:00:00 16.3 18 Oeste 43 Noroeste 0 -- -- 42
2020-10-03 16:00:00 16.4 17 Noroeste 36 Norte 0 -- -- 42
2020-10-03 15:00:00 16.1 16 Noroeste 38 Oeste 0 -- -- 44
2020-10-03 14:00:00 14.8 18 Oeste 37 Oeste 0 -- -- 48
2020-10-03 13:00:00 13.9 14 Noroeste 46 Oeste 0 -- -- 52
2020-10-03 12:00:00 12.2 23 Oeste 44 Oeste 0 -- -- 59
2020-10-03 11:00:00 10.9 12 Noroeste 35 Noroeste 0 -- -- 63
2020-10-03 10:00:00 8.6 10 Noroeste 30 Noroeste 0 -- -- 75
2020-10-03 09:00:00 6.3 14 Noroeste 32 Oeste 0 -- -- 82
2020-10-03 08:00:00 5.9 14 Oeste 26 Noroeste 0 -- -- 82
2020-10-03 07:00:00 6.3 9 Noroeste 35 Oeste 0 -- -- 80
2020-10-03 06:00:00 6.5 16 Oeste 31 Oeste 0 -- -- 80
2020-10-03 05:00:00 6.7 8 Oeste 19 Oeste 0 -- -- 79
2020-10-03 04:00:00 7.2 10 Oeste 28 Noroeste 0 -- -- 76
2020-10-03 03:00:00 7.4 10 Oeste 27 Oeste 0 -- -- 76
2020-10-03 02:00:00 7.8 7 Oeste 32 Oeste 0 -- -- 74
2020-10-03 01:00:00 8.2 15 Oeste 28 Oeste 0 -- -- 70
2020-10-03 00:00:00 8.6 11 Oeste 30 Oeste 0 -- -- 69
2020-10-02 23:00:00 9 10 Oeste 27 Oeste 0 -- -- 71
2020-10-02 22:00:00 9.5 11 Oeste 27 Oeste 0 -- -- 71
2020-10-02 21:00:00 9.5 6 Oeste 21 Oeste 0 -- -- 79
2020-10-02 20:00:00 9.1 10 Oeste 26 Oeste 0 -- -- 81
2020-10-02 19:00:00 8.8 12 Oeste 41 Oeste 0 -- -- 81
2020-10-02 18:00:00 8.5 17 Noroeste 41 Noroeste 1 -- -- 82
2020-10-02 17:00:00 10.7 13 Noroeste 52 Noroeste 7.8 -- -- 89
2020-10-02 16:00:00 17.5 22 Oeste 55 Oeste 0.2 -- -- 67
2020-10-02 15:00:00 20.5 28 Oeste 64 Oeste 0 -- -- 50
2020-10-02 14:00:00 21.2 22 Oeste 57 Sudoeste 0 -- -- 50
2020-10-02 13:00:00 20.4 26 Oeste 57 Sudoeste 0 -- -- 52
2020-10-02 12:00:00 18.7 22 Oeste 50 Sudoeste 0 -- -- 54
2020-10-02 11:00:00 16.8 15 Oeste 44 Sudoeste 0 -- -- 60
2020-10-02 10:00:00 16.1 17 Oeste 44 Sudoeste 0 -- -- 62
2020-10-02 09:00:00 16.1 13 Oeste 38 Oeste 0 -- -- 59
2020-10-02 08:00:00 16 10 Oeste 30 Sudoeste 0 -- -- 57
2020-10-02 07:00:00 15.8 9 Oeste 26 Oeste 0 -- -- 57
2020-10-02 06:00:00 15 7 Oeste 18 Oeste 0 -- -- 68
2020-10-02 05:00:00 15.2 8 Oeste 21 Oeste 0 -- -- 68
2020-10-02 04:00:00 15.4 8 Oeste 19 Oeste 0 -- -- 67
2020-10-02 03:00:00 15.7 6 Oeste 34 Oeste 0 -- -- 65
2020-10-02 02:00:00 16.6 12 Oeste 27 Noroeste 0 -- -- 62
2020-10-02 01:00:00 17.2 10 Oeste 23 Oeste 0 -- -- 60
2020-10-02 00:00:00 17.3 7 Oeste 21 Oeste 0 -- -- 54
2020-10-01 23:00:00 18.3 7 Oeste 20 Oeste 0 -- -- 49
2020-10-01 22:00:00 18.8 7 Oeste 13 Oeste 0 -- -- 44
2020-10-01 21:00:00 20.3 5 Oeste 17 Oeste 0 -- -- 36
2020-10-01 20:00:00 22.3 8 Oeste 26 Oeste 0 -- -- 31
2020-10-01 19:00:00 24.4 15 Oeste 35 Oeste 0 -- -- 26
2020-10-01 18:00:00 26 16 Oeste 36 Oeste 0 -- -- 23
2020-10-01 17:00:00 27.2 20 Oeste 35 Oeste 0 -- -- 22
2020-10-01 16:00:00 27.6 16 Oeste 36 Sudoeste 0 -- -- 25
2020-10-01 15:00:00 27 15 Oeste 35 Noroeste 0 -- -- 25
2020-10-01 14:00:00 26.2 15 Oeste 35 Noroeste 0 -- -- 30
2020-10-01 13:00:00 24.9 19 Oeste 37 Oeste 0 -- -- 31
2020-10-01 12:00:00 23.7 14 Noroeste 35 Oeste 0 -- -- 34
2020-10-01 11:00:00 21.5 13 Noroeste 27 Oeste 0 -- -- 42
2020-10-01 10:00:00 17.8 6 Oeste 17 Oeste 0 -- -- 53
2020-10-01 09:00:00 15.9 8 Oeste 25 Oeste 0 -- -- 57
2020-10-01 08:00:00 15 9 Oeste 20 Oeste 0 -- -- 58
2020-10-01 07:00:00 15.3 10 Oeste 21 Oeste 0 -- -- 56
2020-10-01 06:00:00 15.3 5 Oeste 23 Noroeste 0 -- -- 55
2020-10-01 05:00:00 15.7 9 Oeste 20 Oeste 0 -- -- 55
2020-10-01 04:00:00 15.8 9 Oeste 23 Oeste 0 -- -- 58
2020-10-01 03:00:00 12.5 0 Calma 3 Este 0 -- -- 74
2020-10-01 02:00:00 12.9 0 Calma 6 Este 0 -- -- 72
2020-10-01 01:00:00 12.9 0 Calma 4 Nordeste 0 -- -- 70
2020-10-01 00:00:00 14.2 0 Calma 3 Sur 0 -- -- 66